sensor_id;sensor_type;location;lat;lon;timestamp;pressure;altitude;pressure_sealevel;temperature;humidity
11888;BME280;6003;42.756;23.130;2023-07-08T00:00:13;156876.94;;;17.30;100.00
11888;BME280;6003;42.756;23.130;2023-07-08T00:02:43;156884.91;;;17.33;100.00
11888;BME280;6003;42.756;23.130;2023-07-08T00:05:12;156878.25;;;17.30;100.00
11888;BME280;6003;42.756;23.130;2023-07-08T00:07:41;156876.94;;;17.30;100.00
11888;BME280;6003;42.756;23.130;2023-07-08T00:10:12;156863.66;;;17.25;100.00
11888;BME280;6003;42.756;23.130;2023-07-08T00:12:39;156871.63;;;17.28;100.00
11888;BME280;6003;42.756;23.130;2023-07-08T00:15:07;156868.97;;;17.27;100.00
11888;BME280;6003;42.756;23.130;2023-07-08T00:17:34;156858.31;;;17.23;100.00
11888;BME280;6003;42.756;23.130;2023-07-08T00:20:12;156858.31;;;17.23;100.00
11888;BME280;6003;42.756;23.130;2023-07-08T00:22:40;156849.03;;;17.19;100.00
11888;BME280;6003;42.756;23.130;2023-07-08T00:25:08;156847.72;;;17.19;100.00
11888;BME280;6003;42.756;23.130;2023-07-08T00:27:35;156850.34;;;17.20;100.00
11888;BME280;6003;42.756;23.130;2023-07-08T00:30:15;156845.06;;;17.18;100.00
11888;BME280;6003;42.756;23.130;2023-07-08T00:32:44;156837.06;;;17.14;100.00
11888;BME280;6003;42.756;23.130;2023-07-08T00:35:12;156837.06;;;17.14;100.00
11888;BME280;6003;42.756;23.130;2023-07-08T00:37:39;156834.41;;;17.13;100.00
11888;BME280;6003;42.756;23.130;2023-07-08T00:40:15;156837.06;;;17.14;100.00
11888;BME280;6003;42.756;23.130;2023-07-08T00:42:44;156817.16;;;17.07;100.00
11888;BME280;6003;42.756;23.130;2023-07-08T00:45:32;156815.84;;;17.06;100.00
11888;BME280;6003;42.756;23.130;2023-07-08T00:48:06;156799.88;;;17.00;100.00
11888;BME280;6003;42.756;23.130;2023-07-08T00:50:36;156805.19;;;17.02;100.00
11888;BME280;6003;42.756;23.130;2023-07-08T00:53:23;156802.56;;;17.01;100.00
11888;BME280;6003;42.756;23.130;2023-07-08T00:55:52;156791.91;;;16.97;100.00
11888;BME280;6003;42.756;23.130;2023-07-08T00:58:22;156773.31;;;16.90;100.00
11888;BME280;6003;42.756;23.130;2023-07-08T01:00:51;156781.28;;;16.93;100.00
11888;BME280;6003;42.756;23.130;2023-07-08T01:03:20;156779.97;;;16.92;100.00
11888;BME280;6003;42.756;23.130;2023-07-08T01:05:50;156770.69;;;16.89;100.00
11888;BME280;6003;42.756;23.130;2023-07-08T01:08:18;156778.66;;;16.92;100.00
11888;BME280;6003;42.756;23.130;2023-07-08T01:10:56;156778.66;;;16.92;100.00
11888;BME280;6003;42.756;23.130;2023-07-08T01:13:24;156770.69;;;16.89;100.00
11888;BME280;6003;42.756;23.130;2023-07-08T01:15:51;156772.00;;;16.89;100.00
11888;BME280;6003;42.756;23.130;2023-07-08T01:18:19;156762.66;;;16.86;100.00
11888;BME280;6003;42.756;23.130;2023-07-08T01:20:49;156757.41;;;16.84;100.00
11888;BME280;6003;42.756;23.130;2023-07-08T01:23:17;156754.72;;;16.83;100.00
11888;BME280;6003;42.756;23.130;2023-07-08T01:25:45;156749.44;;;16.81;100.00
11888;BME280;6003;42.756;23.130;2023-07-08T01:28:13;156748.13;;;16.80;100.00
11888;BME280;6003;42.756;23.130;2023-07-08T01:30:41;156754.72;;;16.83;100.00
11888;BME280;6003;42.756;23.130;2023-07-08T01:33:16;156757.41;;;16.84;100.00
11888;BME280;6003;42.756;23.130;2023-07-08T01:35:45;156757.41;;;16.84;100.00
11888;BME280;6003;42.756;23.130;2023-07-08T01:38:14;156738.78;;;16.77;100.00
11888;BME280;6003;42.756;23.130;2023-07-08T01:40:50;156741.47;;;16.78;100.00
11888;BME280;6003;42.756;23.130;2023-07-08T01:43:17;156748.13;;;16.80;100.00
11888;BME280;6003;42.756;23.130;2023-07-08T01:45:44;156753.38;;;16.82;100.00
11888;BME280;6003;42.756;23.130;2023-07-08T01:48:17;156754.72;;;16.83;100.00
11888;BME280;6003;42.756;23.130;2023-07-08T01:50:48;156744.09;;;16.79;100.00
11888;BME280;6003;42.756;23.130;2023-07-08T01:53:19;156748.13;;;16.80;100.00
11888;BME280;6003;42.756;23.130;2023-07-08T01:55:47;156744.09;;;16.79;100.00
11888;BME280;6003;42.756;23.130;2023-07-08T01:58:15;156741.47;;;16.78;100.00
11888;BME280;6003;42.756;23.130;2023-07-08T02:00:42;156742.78;;;16.78;100.00
11888;BME280;6003;42.756;23.130;2023-07-08T02:03:08;156741.47;;;16.78;100.00
11888;BME280;6003;42.756;23.130;2023-07-08T02:05:36;156736.09;;;16.76;100.00
11888;BME280;6003;42.756;23.130;2023-07-08T02:08:03;156722.78;;;16.70;100.00
11888;BME280;6003;42.756;23.130;2023-07-08T02:10:30;156720.16;;;16.69;100.00
11888;BME280;6003;42.756;23.130;2023-07-08T02:12:57;156712.19;;;16.66;100.00
11888;BME280;6003;42.756;23.130;2023-07-08T02:15:26;156704.22;;;16.63;100.00
11888;BME280;6003;42.756;23.130;2023-07-08T02:17:53;156698.91;;;16.61;100.00
11888;BME280;6003;42.756;23.130;2023-07-08T02:20:21;156693.59;;;16.59;100.00
11888;BME280;6003;42.756;23.130;2023-07-08T02:22:47;156690.94;;;16.58;100.00
11888;BME280;6003;42.756;23.130;2023-07-08T02:25:14;156690.94;;;16.58;100.00
11888;BME280;6003;42.756;23.130;2023-07-08T02:27:42;156688.31;;;16.57;100.00
11888;BME280;6003;42.756;23.130;2023-07-08T02:30:09;156692.25;;;16.59;100.00
11888;BME280;6003;42.756;23.130;2023-07-08T02:32:39;156688.31;;;16.57;100.00
11888;BME280;6003;42.756;23.130;2023-07-08T02:35:07;156690.94;;;16.58;100.00
11888;BME280;6003;42.756;23.130;2023-07-08T02:37:35;156681.66;;;16.55;100.00
11888;BME280;6003;42.756;23.130;2023-07-08T02:40:02;156690.94;;;16.58;100.00
11888;BME280;6003;42.756;23.130;2023-07-08T02:42:29;156688.31;;;16.57;100.00
11888;BME280;6003;42.756;23.130;2023-07-08T02:44:56;156681.66;;;16.55;100.00
11888;BME280;6003;42.756;23.130;2023-07-08T02:47:22;156682.97;;;16.55;100.00
11888;BME280;6003;42.756;23.130;2023-07-08T02:49:51;156672.31;;;16.51;100.00
11888;BME280;6003;42.756;23.130;2023-07-08T02:52:19;156673.69;;;16.52;100.00
11888;BME280;6003;42.756;23.130;2023-07-08T02:54:46;156661.72;;;16.47;100.00
11888;BME280;6003;42.756;23.130;2023-07-08T02:57:13;156651.13;;;16.43;100.00
11888;BME280;6003;42.756;23.130;2023-07-08T02:59:47;156637.84;;;16.38;100.00
11888;BME280;6003;42.756;23.130;2023-07-08T03:02:14;156649.75;;;16.42;100.00
11888;BME280;6003;42.756;23.130;2023-07-08T03:04:41;156635.16;;;16.37;100.00
11888;BME280;6003;42.756;23.130;2023-07-08T03:07:11;156624.56;;;16.33;100.00
11888;BME280;6003;42.756;23.130;2023-07-08T03:09:38;156629.88;;;16.35;100.00
11888;BME280;6003;42.756;23.130;2023-07-08T03:12:06;156632.50;;;16.36;100.00
11888;BME280;6003;42.756;23.130;2023-07-08T03:14:33;156637.84;;;16.38;100.00
11888;BME280;6003;42.756;23.130;2023-07-08T03:17:01;156635.16;;;16.37;100.00
11888;BME280;6003;42.756;23.130;2023-07-08T03:19:31;156661.72;;;16.47;100.00
11888;BME280;6003;42.756;23.130;2023-07-08T03:21:58;156706.88;;;16.64;100.00
11888;BME280;6003;42.756;23.130;2023-07-08T03:24:29;156770.69;;;16.89;100.00
11888;BME280;6003;42.756;23.130;2023-07-08T03:26:56;156831.78;;;17.12;100.00
11888;BME280;6003;42.756;23.130;2023-07-08T03:29:26;156900.84;;;17.39;100.00
11888;BME280;6003;42.756;23.130;2023-07-08T03:31:52;156985.88;;;17.72;100.00
11888;BME280;6003;42.756;23.130;2023-07-08T03:34:19;157097.56;;;18.15;100.00
11888;BME280;6003;42.756;23.130;2023-07-08T03:36:48;157193.31;;;18.52;100.00
11888;BME280;6003;42.756;23.130;2023-07-08T03:39:16;157259.84;;;18.77;100.00
11888;BME280;6003;42.756;23.130;2023-07-08T03:41:45;157364.91;;;19.17;100.00
11888;BME280;6003;42.756;23.130;2023-07-08T03:44:12;157443.41;;;19.48;98.48
11888;BME280;6003;42.756;23.130;2023-07-08T03:46:41;157531.28;;;19.81;96.38
11888;BME280;6003;42.756;23.130;2023-07-08T03:49:08;157637.75;;;20.22;94.81
11888;BME280;6003;42.756;23.130;2023-07-08T03:51:38;157755.00;;;20.67;92.24
11888;BME280;6003;42.756;23.130;2023-07-08T03:54:06;157834.94;;;20.98;89.48
11888;BME280;6003;42.756;23.130;2023-07-08T03:56:35;157861.53;;;21.08;88.65
11888;BME280;6003;42.756;23.130;2023-07-08T03:59:03;157876.19;;;21.14;88.06
11888;BME280;6003;42.756;23.130;2023-07-08T04:01:30;157924.19;;;21.32;87.23
11888;BME280;6003;42.756;23.130;2023-07-08T04:03:58;157949.53;;;21.42;86.02
11888;BME280;6003;42.756;23.130;2023-07-08T04:06:26;157880.22;;;21.15;86.45
11888;BME280;6003;42.756;23.130;2023-07-08T04:08:54;157890.84;;;21.19;87.07
11888;BME280;6003;42.756;23.130;2023-07-08T04:11:23;157917.50;;;21.30;86.62
11888;BME280;6003;42.756;23.130;2023-07-08T04:13:50;157997.47;;;21.60;84.96
11888;BME280;6003;42.756;23.130;2023-07-08T04:16:21;158145.47;;;22.17;84.00
11888;BME280;6003;42.756;23.130;2023-07-08T04:18:48;158168.13;;;22.26;82.18
11888;BME280;6003;42.756;23.130;2023-07-08T04:21:18;158145.47;;;22.17;81.38
11888;BME280;6003;42.756;23.130;2023-07-08T04:23:45;158205.47;;;22.40;80.62
11888;BME280;6003;42.756;23.130;2023-07-08T04:26:12;158357.53;;;22.98;79.74
11888;BME280;6003;42.756;23.130;2023-07-08T04:28:40;158498.94;;;23.53;77.42
11888;BME280;6003;42.756;23.130;2023-07-08T04:31:07;158645.78;;;24.09;75.39
11888;BME280;6003;42.756;23.130;2023-07-08T04:33:36;158709.84;;;24.33;74.02
11888;BME280;6003;42.756;23.130;2023-07-08T04:36:03;158744.63;;;24.47;73.13
11888;BME280;6003;42.756;23.130;2023-07-08T04:38:31;158846.06;;;24.86;72.34
11888;BME280;6003;42.756;23.130;2023-07-08T04:41:02;159001.06;;;25.45;69.98
11888;BME280;6003;42.756;23.130;2023-07-08T04:43:29;158958.31;;;25.29;69.98
11888;BME280;6003;42.756;23.130;2023-07-08T04:45:56;158945.00;;;25.24;69.64
11888;BME280;6003;42.756;23.130;2023-07-08T04:48:23;159070.53;;;25.72;69.15
11888;BME280;6003;42.756;23.130;2023-07-08T04:50:53;159153.41;;;26.03;67.68
11888;BME280;6003;42.756;23.130;2023-07-08T04:53:20;159189.50;;;26.17;66.83
11888;BME280;6003;42.756;23.130;2023-07-08T04:55:49;159313.91;;;26.65;66.19
11888;BME280;6003;42.756;23.130;2023-07-08T04:58:16;159220.25;;;26.29;65.70
11888;BME280;6003;42.756;23.130;2023-07-08T05:00:43;159284.47;;;26.53;65.91
11888;BME280;6003;42.756;23.130;2023-07-08T05:03:10;159221.56;;;26.29;66.33
11888;BME280;6003;42.756;23.130;2023-07-08T05:05:37;159224.28;;;26.30;66.34
11888;BME280;6003;42.756;23.130;2023-07-08T05:08:05;159212.22;;;26.26;66.12
11888;BME280;6003;42.756;23.130;2023-07-08T05:10:35;159297.88;;;26.59;65.02
11888;BME280;6003;42.756;23.130;2023-07-08T05:13:02;159416.81;;;27.04;65.18
11888;BME280;6003;42.756;23.130;2023-07-08T05:15:29;159367.38;;;26.85;64.03
11888;BME280;6003;42.756;23.130;2023-07-08T05:17:56;159394.09;;;26.95;63.74
11888;BME280;6003;42.756;23.130;2023-07-08T05:20:23;159324.56;;;26.69;64.36
11888;BME280;6003;42.756;23.130;2023-07-08T05:22:49;159366.03;;;26.85;65.97
11888;BME280;6003;42.756;23.130;2023-07-08T05:25:18;159551.94;;;27.56;63.30
11888;BME280;6003;42.756;23.130;2023-07-08T05:27:46;159621.59;;;27.82;62.00
11888;BME280;6003;42.756;23.130;2023-07-08T05:30:14;159511.84;;;27.40;62.46
11888;BME280;6003;42.756;23.130;2023-07-08T05:32:41;159391.44;;;26.94;63.48
11888;BME280;6003;42.756;23.130;2023-07-08T05:35:08;159412.84;;;27.03;64.05
11888;BME280;6003;42.756;23.130;2023-07-08T05:37:35;159387.41;;;26.93;63.10
11888;BME280;6003;42.756;23.130;2023-07-08T05:40:03;159461.00;;;27.21;64.76
11888;BME280;6003;42.756;23.130;2023-07-08T05:42:31;159644.34;;;27.91;63.79
11888;BME280;6003;42.756;23.130;2023-07-08T05:44:58;159525.22;;;27.45;62.54
11888;BME280;6003;42.756;23.130;2023-07-08T05:47:26;159391.44;;;26.94;61.59
11888;BME280;6003;42.756;23.130;2023-07-08T05:49:53;159241.66;;;26.37;63.35
11888;BME280;6003;42.756;23.130;2023-07-08T05:52:19;159132.09;;;25.95;64.89
11888;BME280;6003;42.756;23.130;2023-07-08T05:54:46;159272.38;;;26.49;66.62
11888;BME280;6003;42.756;23.130;2023-07-08T05:57:13;159319.22;;;26.67;65.06
11888;BME280;6003;42.756;23.130;2023-07-08T05:59:41;159089.25;;;25.79;65.55
11888;BME280;6003;42.756;23.130;2023-07-08T06:02:10;159030.47;;;25.56;65.96
11888;BME280;6003;42.756;23.130;2023-07-08T06:04:37;159009.06;;;25.48;66.83
11888;BME280;6003;42.756;23.130;2023-07-08T06:07:05;159128.03;;;25.94;64.75
11888;BME280;6003;42.756;23.130;2023-07-08T06:09:34;159051.84;;;25.64;64.82
11888;BME280;6003;42.756;23.130;2023-07-08T06:12:01;159174.81;;;26.11;66.41
11888;BME280;6003;42.756;23.130;2023-07-08T06:14:28;159153.41;;;26.03;66.09
11888;BME280;6003;42.756;23.130;2023-07-08T06:16:57;159382.09;;;26.91;65.54
11888;BME280;6003;42.756;23.130;2023-07-08T06:19:24;159291.19;;;26.56;61.90
11888;BME280;6003;42.756;23.130;2023-07-08T06:21:51;159196.19;;;26.20;62.44
11888;BME280;6003;42.756;23.130;2023-07-08T06:24:18;159158.78;;;26.05;62.71
11888;BME280;6003;42.756;23.130;2023-07-08T06:26:46;159043.84;;;25.61;62.91
11888;BME280;6003;42.756;23.130;2023-07-08T06:29:13;159043.84;;;25.61;63.82
11888;BME280;6003;42.756;23.130;2023-07-08T06:31:41;159026.44;;;25.55;64.28
11888;BME280;6003;42.756;23.130;2023-07-08T06:34:09;159065.22;;;25.70;64.94
11888;BME280;6003;42.756;23.130;2023-07-08T06:36:36;159182.81;;;26.15;64.21
11888;BME280;6003;42.756;23.130;2023-07-08T06:39:03;159071.91;;;25.72;63.99
11888;BME280;6003;42.756;23.130;2023-07-08T06:41:32;159164.13;;;26.07;63.90
11888;BME280;6003;42.756;23.130;2023-07-08T06:43:59;159094.63;;;25.81;62.27
11888;BME280;6003;42.756;23.130;2023-07-08T06:46:26;159113.34;;;25.88;63.48
11888;BME280;6003;42.756;23.130;2023-07-08T06:48:53;159053.16;;;25.65;64.20
11888;BME280;6003;42.756;23.130;2023-07-08T06:51:21;158899.53;;;25.06;65.75
11888;BME280;6003;42.756;23.130;2023-07-08T06:53:48;158692.50;;;24.27;67.88
11888;BME280;6003;42.756;23.130;2023-07-08T06:56:15;158600.41;;;23.92;70.18
11888;BME280;6003;42.756;23.130;2023-07-08T06:58:42;158497.59;;;23.52;71.28
11888;BME280;6003;42.756;23.130;2023-07-08T07:01:09;158536.28;;;23.67;72.24
11888;BME280;6003;42.756;23.130;2023-07-08T07:03:36;158621.78;;;24.00;70.08
11888;BME280;6003;42.756;23.130;2023-07-08T07:06:03;158695.16;;;24.28;69.07
11888;BME280;6003;42.756;23.130;2023-07-08T07:08:31;158477.56;;;23.45;70.97
11888;BME280;6003;42.756;23.130;2023-07-08T07:10:58;158406.88;;;23.17;73.39
11888;BME280;6003;42.756;23.130;2023-07-08T07:13:25;158400.22;;;23.15;74.34
11888;BME280;6003;42.756;23.130;2023-07-08T07:15:52;158305.44;;;22.79;74.57
11888;BME280;6003;42.756;23.130;2023-07-08T07:18:19;158322.81;;;22.85;75.76
11888;BME280;6003;42.756;23.130;2023-07-08T07:20:50;158229.44;;;22.49;75.07
11888;BME280;6003;42.756;23.130;2023-07-08T07:23:17;158162.78;;;22.24;74.95
11888;BME280;6003;42.756;23.130;2023-07-08T07:25:46;158132.09;;;22.12;77.40
11888;BME280;6003;42.756;23.130;2023-07-08T07:28:14;158152.13;;;22.20;78.50
11888;BME280;6003;42.756;23.130;2023-07-08T07:30:56;158002.81;;;21.62;74.75
11888;BME280;6003;42.756;23.130;2023-07-08T07:33:24;157994.81;;;21.59;75.88
11888;BME280;6003;42.756;23.130;2023-07-08T07:35:51;157933.50;;;21.36;77.66
11888;BME280;6003;42.756;23.130;2023-07-08T07:38:19;157953.53;;;21.44;78.15
11888;BME280;6003;42.756;23.130;2023-07-08T07:40:47;158038.81;;;21.76;77.47
11888;BME280;6003;42.756;23.130;2023-07-08T07:43:14;158122.75;;;22.08;77.37
11888;BME280;6003;42.756;23.130;2023-07-08T07:45:40;158130.75;;;22.12;76.91
11888;BME280;6003;42.756;23.130;2023-07-08T07:48:07;158258.78;;;22.61;75.40
11888;BME280;6003;42.756;23.130;2023-07-08T07:50:34;158336.16;;;22.90;74.17
11888;BME280;6003;42.756;23.130;2023-07-08T07:53:01;158398.88;;;23.14;74.86
11888;BME280;6003;42.756;23.130;2023-07-08T07:55:28;158297.44;;;22.75;72.24
11888;BME280;6003;42.756;23.130;2023-07-08T07:57:56;158133.47;;;22.13;74.86
11888;BME280;6003;42.756;23.130;2023-07-08T08:00:23;158120.13;;;22.07;76.36
11888;BME280;6003;42.756;23.130;2023-07-08T08:02:50;158128.09;;;22.11;78.45
11888;BME280;6003;42.756;23.130;2023-07-08T08:05:17;158178.81;;;22.30;78.56
11888;BME280;6003;42.756;23.130;2023-07-08T08:07:44;158301.47;;;22.77;77.06
11888;BME280;6003;42.756;23.130;2023-07-08T08:10:13;158384.22;;;23.09;76.23
11888;BME280;6003;42.756;23.130;2023-07-08T08:12:40;158356.19;;;22.98;72.21
11888;BME280;6003;42.756;23.130;2023-07-08T08:15:09;158478.94;;;23.45;75.47
11888;BME280;6003;42.756;23.130;2023-07-08T08:17:36;158619.06;;;23.99;75.43
11888;BME280;6003;42.756;23.130;2023-07-08T08:20:05;158600.41;;;23.92;70.65
11888;BME280;6003;42.756;23.130;2023-07-08T08:22:32;158536.28;;;23.67;71.64
11888;BME280;6003;42.756;23.130;2023-07-08T08:24:59;158386.88;;;23.10;71.29
11888;BME280;6003;42.756;23.130;2023-07-08T08:27:27;158316.16;;;22.83;73.13
11888;BME280;6003;42.756;23.130;2023-07-08T08:29:55;158277.50;;;22.68;73.30
11888;BME280;6003;42.756;23.130;2023-07-08T08:32:23;158362.88;;;23.01;74.84
11888;BME280;6003;42.756;23.130;2023-07-08T08:34:50;158418.91;;;23.22;73.58
11888;BME280;6003;42.756;23.130;2023-07-08T08:37:17;158555.03;;;23.74;76.21
11888;BME280;6003;42.756;23.130;2023-07-08T08:39:44;158667.16;;;24.17;74.22
11888;BME280;6003;42.756;23.130;2023-07-08T08:42:18;158685.81;;;24.24;69.69
11888;BME280;6003;42.756;23.130;2023-07-08T08:44:46;158675.16;;;24.20;69.49
11888;BME280;6003;42.756;23.130;2023-07-08T08:50:05;158819.38;;;24.75;68.76
11888;BME280;6003;42.756;23.130;2023-07-08T08:52:37;158808.66;;;24.71;69.00
11888;BME280;6003;42.756;23.130;2023-07-08T08:55:10;158806.03;;;24.70;66.49
11888;BME280;6003;42.756;23.130;2023-07-08T08:57:41;158875.44;;;24.97;66.69
11888;BME280;6003;42.756;23.130;2023-07-08T09:00:15;158934.28;;;25.19;67.62
11888;BME280;6003;42.756;23.130;2023-07-08T09:02:50;158915.56;;;25.12;65.78
11888;BME280;6003;42.756;23.130;2023-07-08T09:05:21;158912.84;;;25.11;66.36
11888;BME280;6003;42.756;23.130;2023-07-08T09:08:00;158882.13;;;24.99;65.89
11888;BME280;6003;42.756;23.130;2023-07-08T09:10:39;158928.91;;;25.17;63.54
11888;BME280;6003;42.756;23.130;2023-07-08T09:13:14;158974.38;;;25.35;65.41
11888;BME280;6003;42.756;23.130;2023-07-08T09:15:43;158955.66;;;25.28;64.26
11888;BME280;6003;42.756;23.130;2023-07-08T09:18:19;158920.91;;;25.14;65.54
11888;BME280;6003;42.756;23.130;2023-07-08T09:20:50;158969.03;;;25.33;69.89
11888;BME280;6003;42.756;23.130;2023-07-08T09:23:22;158939.63;;;25.21;65.41
11888;BME280;6003;42.756;23.130;2023-07-08T09:26:05;158945.00;;;25.24;64.64
11888;BME280;6003;42.756;23.130;2023-07-08T09:28:37;159015.75;;;25.51;65.43
11888;BME280;6003;42.756;23.130;2023-07-08T09:31:06;159046.50;;;25.62;67.53
11888;BME280;6003;42.756;23.130;2023-07-08T09:33:34;159081.25;;;25.76;65.79
11888;BME280;6003;42.756;23.130;2023-07-08T09:36:16;159017.09;;;25.51;64.71
11888;BME280;6003;42.756;23.130;2023-07-08T09:38:46;158987.69;;;25.40;64.41
11888;BME280;6003;42.756;23.130;2023-07-08T09:41:14;159025.09;;;25.54;62.52
11888;BME280;6003;42.756;23.130;2023-07-08T09:43:43;159097.28;;;25.82;66.89
11888;BME280;6003;42.756;23.130;2023-07-08T09:46:12;159079.91;;;25.75;63.44
11888;BME280;6003;42.756;23.130;2023-07-08T09:48:40;159058.53;;;25.67;62.88
11888;BME280;6003;42.756;23.130;2023-07-08T09:51:08;159094.63;;;25.81;64.74
11888;BME280;6003;42.756;23.130;2023-07-08T09:53:35;159019.78;;;25.52;63.84
11888;BME280;6003;42.756;23.130;2023-07-08T09:56:04;158979.69;;;25.37;66.12
11888;BME280;6003;42.756;23.130;2023-07-08T09:58:33;158915.56;;;25.12;63.38
11888;BME280;6003;42.756;23.130;2023-07-08T10:01:10;158899.53;;;25.06;65.44
11888;BME280;6003;42.756;23.130;2023-07-08T10:03:37;158939.63;;;25.21;66.28
11888;BME280;6003;42.756;23.130;2023-07-08T10:06:13;158908.88;;;25.10;65.93
11888;BME280;6003;42.756;23.130;2023-07-08T10:08:43;158940.97;;;25.22;66.62
11888;BME280;6003;42.756;23.130;2023-07-08T10:11:13;158982.38;;;25.38;63.64
11888;BME280;6003;42.756;23.130;2023-07-08T10:13:48;159046.50;;;25.62;68.86
11888;BME280;6003;42.756;23.130;2023-07-08T10:16:22;159039.81;;;25.60;63.81
11888;BME280;6003;42.756;23.130;2023-07-08T10:18:50;159030.47;;;25.56;64.61
11888;BME280;6003;42.756;23.130;2023-07-08T10:21:26;159003.72;;;25.46;63.91
11888;BME280;6003;42.756;23.130;2023-07-08T10:24:20;158971.69;;;25.34;63.89
11888;BME280;6003;42.756;23.130;2023-07-08T10:26:53;158955.66;;;25.28;63.94
11888;BME280;6003;42.756;23.130;2023-07-08T10:29:31;158953.00;;;25.27;64.51
11888;BME280;6003;42.756;23.130;2023-07-08T10:32:08;158910.19;;;25.10;66.00
11888;BME280;6003;42.756;23.130;2023-07-08T10:34:46;158936.97;;;25.20;66.32
11888;BME280;6003;42.756;23.130;2023-07-08T10:37:23;158930.28;;;25.18;65.28
11888;BME280;6003;42.756;23.130;2023-07-08T10:40:07;158934.28;;;25.19;65.86
11888;BME280;6003;42.756;23.130;2023-07-08T10:45:49;158934.28;;;25.19;66.07
11888;BME280;6003;42.756;23.130;2023-07-08T10:48:35;158943.59;;;25.23;64.49
11888;BME280;6003;42.756;23.130;2023-07-08T10:51:16;158963.66;;;25.31;64.92
11888;BME280;6003;42.756;23.130;2023-07-08T10:54:05;158945.00;;;25.24;64.32
11888;BME280;6003;42.756;23.130;2023-07-08T10:56:44;158943.59;;;25.23;64.59
11888;BME280;6003;42.756;23.130;2023-07-08T10:59:28;158981.00;;;25.37;65.44
11888;BME280;6003;42.756;23.130;2023-07-08T11:02:17;158969.03;;;25.33;64.76
11888;BME280;6003;42.756;23.130;2023-07-08T11:05:00;158985.03;;;25.39;64.86
11888;BME280;6003;42.756;23.130;2023-07-08T11:07:38;158962.34;;;25.30;63.27
11888;BME280;6003;42.756;23.130;2023-07-08T11:10:12;159003.72;;;25.46;65.65
11888;BME280;6003;42.756;23.130;2023-07-08T11:12:45;158997.09;;;25.43;62.66
11888;BME280;6003;42.756;23.130;2023-07-08T11:15:18;158979.69;;;25.37;62.02
11888;BME280;6003;42.756;23.130;2023-07-08T11:17:51;158990.41;;;25.41;63.99
11888;BME280;6003;42.756;23.130;2023-07-08T11:20:24;159021.13;;;25.53;64.60
11888;BME280;6003;42.756;23.130;2023-07-08T11:22:57;159025.09;;;25.54;64.59
11888;BME280;6003;42.756;23.130;2023-07-08T11:25:27;159053.16;;;25.65;62.76
11888;BME280;6003;42.756;23.130;2023-07-08T11:27:58;159104.00;;;25.84;66.08
11888;BME280;6003;42.756;23.130;2023-07-08T11:30:30;159126.72;;;25.93;65.56
11888;BME280;6003;42.756;23.130;2023-07-08T11:33:00;159141.41;;;25.99;61.45
11888;BME280;6003;42.756;23.130;2023-07-08T11:35:36;159122.69;;;25.92;60.32
11888;BME280;6003;42.756;23.130;2023-07-08T11:38:06;159130.69;;;25.95;63.26
11888;BME280;6003;42.756;23.130;2023-07-08T11:40:50;159148.13;;;26.01;62.12
11888;BME280;6003;42.756;23.130;2023-07-08T11:43:20;159189.50;;;26.17;64.00
11888;BME280;6003;42.756;23.130;2023-07-08T11:45:49;159142.75;;;25.99;63.18
11888;BME280;6003;42.756;23.130;2023-07-08T11:48:22;159164.13;;;26.07;66.20
11888;BME280;6003;42.756;23.130;2023-07-08T11:50:51;159156.13;;;26.04;61.09
11888;BME280;6003;42.756;23.130;2023-07-08T11:53:36;159140.09;;;25.98;62.73
11888;BME280;6003;42.756;23.130;2023-07-08T11:56:18;159097.28;;;25.82;61.72
11888;BME280;6003;42.756;23.130;2023-07-08T11:59:12;159089.25;;;25.79;63.85
11888;BME280;6003;42.756;23.130;2023-07-08T12:01:48;159104.00;;;25.84;60.00
11888;BME280;6003;42.756;23.130;2023-07-08T12:04:31;159104.00;;;25.84;60.61
11888;BME280;6003;42.756;23.130;2023-07-08T12:07:16;159110.69;;;25.87;61.63
11888;BME280;6003;42.756;23.130;2023-07-08T12:09:47;159137.41;;;25.97;61.45
11888;BME280;6003;42.756;23.130;2023-07-08T12:12:19;159079.91;;;25.75;61.15
11888;BME280;6003;42.756;23.130;2023-07-08T12:14:49;159091.91;;;25.80;62.34
11888;BME280;6003;42.756;23.130;2023-07-08T12:17:17;159073.22;;;25.73;60.88
11888;BME280;6003;42.756;23.130;2023-07-08T12:19:46;159054.50;;;25.65;62.21
11888;BME280;6003;42.756;23.130;2023-07-08T12:22:14;159089.25;;;25.79;60.03
11888;BME280;6003;42.756;23.130;2023-07-08T12:24:41;159065.22;;;25.70;59.77
11888;BME280;6003;42.756;23.130;2023-07-08T12:27:11;159025.09;;;25.54;60.57
11888;BME280;6003;42.756;23.130;2023-07-08T12:29:38;159070.53;;;25.72;60.90
11888;BME280;6003;42.756;23.130;2023-07-08T12:32:11;159089.25;;;25.79;60.02
11888;BME280;6003;42.756;23.130;2023-07-08T12:34:39;159094.63;;;25.81;60.34
11888;BME280;6003;42.756;23.130;2023-07-08T12:37:11;159113.34;;;25.88;60.52
11888;BME280;6003;42.756;23.130;2023-07-08T12:39:39;159110.69;;;25.87;59.58
11888;BME280;6003;42.756;23.130;2023-07-08T12:42:10;159097.28;;;25.82;61.06
11888;BME280;6003;42.756;23.130;2023-07-08T12:44:38;159153.41;;;26.03;60.55
11888;BME280;6003;42.756;23.130;2023-07-08T12:47:09;159154.78;;;26.04;60.22
11888;BME280;6003;42.756;23.130;2023-07-08T12:49:36;159194.88;;;26.19;59.30
11888;BME280;6003;42.756;23.130;2023-07-08T12:52:03;159188.19;;;26.17;60.18
11888;BME280;6003;42.756;23.130;2023-07-08T12:54:30;159204.22;;;26.23;60.78
11888;BME280;6003;42.756;23.130;2023-07-08T12:56:59;159230.97;;;26.33;60.87
11888;BME280;6003;42.756;23.130;2023-07-08T12:59:26;159176.13;;;26.12;57.51
11888;BME280;6003;42.756;23.130;2023-07-08T13:01:53;159212.22;;;26.26;60.26
11888;BME280;6003;42.756;23.130;2023-07-08T13:04:22;159249.66;;;26.40;60.52
11888;BME280;6003;42.756;23.130;2023-07-08T13:06:49;159260.38;;;26.44;58.49